sensor_id;sensor_type;location;lat;lon;timestamp;P1;durP1;ratioP1;P2;durP2;ratioP2
5245;SDS011;54412;51.206;6.888;2023-08-31T00:00:41;5.80;;;1.97;;
5245;SDS011;54412;51.206;6.888;2023-08-31T00:03:12;9.10;;;2.13;;
5245;SDS011;54412;51.206;6.888;2023-08-31T00:05:42;4.67;;;2.27;;
5245;SDS011;54412;51.206;6.888;2023-08-31T00:08:09;3.87;;;2.20;;
5245;SDS011;54412;51.206;6.888;2023-08-31T00:10:36;10.37;;;2.50;;
5245;SDS011;54412;51.206;6.888;2023-08-31T00:13:02;6.00;;;2.27;;
5245;SDS011;54412;51.206;6.888;2023-08-31T00:15:29;8.83;;;3.53;;
5245;SDS011;54412;51.206;6.888;2023-08-31T00:17:58;2.07;;;1.97;;
5245;SDS011;54412;51.206;6.888;2023-08-31T00:20:24;8.60;;;2.80;;
5245;SDS011;54412;51.206;6.888;2023-08-31T00:22:51;3.13;;;2.40;;
5245;SDS011;54412;51.206;6.888;2023-08-31T00:25:17;3.43;;;2.20;;
5245;SDS011;54412;51.206;6.888;2023-08-31T00:27:43;4.50;;;2.10;;
5245;SDS011;54412;51.206;6.888;2023-08-31T00:30:13;9.23;;;2.40;;
5245;SDS011;54412;51.206;6.888;2023-08-31T00:32:40;2.20;;;1.80;;
5245;SDS011;54412;51.206;6.888;2023-08-31T00:35:07;4.53;;;2.50;;
5245;SDS011;54412;51.206;6.888;2023-08-31T00:37:34;4.23;;;2.07;;
5245;SDS011;54412;51.206;6.888;2023-08-31T00:40:00;4.77;;;2.47;;
5245;SDS011;54412;51.206;6.888;2023-08-31T00:42:26;7.30;;;2.50;;
5245;SDS011;54412;51.206;6.888;2023-08-31T00:44:54;6.17;;;2.50;;
5245;SDS011;54412;51.206;6.888;2023-08-31T00:47:20;5.27;;;3.00;;
5245;SDS011;54412;51.206;6.888;2023-08-31T00:49:46;4.90;;;2.27;;
5245;SDS011;54412;51.206;6.888;2023-08-31T00:52:13;12.33;;;2.40;;
5245;SDS011;54412;51.206;6.888;2023-08-31T00:54:39;3.83;;;2.23;;
5245;SDS011;54412;51.206;6.888;2023-08-31T00:57:07;8.03;;;2.70;;
5245;SDS011;54412;51.206;6.888;2023-08-31T00:59:33;2.83;;;2.20;;
5245;SDS011;54412;51.206;6.888;2023-08-31T01:02:13;13.63;;;2.60;;
5245;SDS011;54412;51.206;6.888;2023-08-31T01:13:38;7.20;;;3.27;;
5245;SDS011;54412;51.206;6.888;2023-08-31T01:16:09;7.70;;;3.20;;
5245;SDS011;54412;51.206;6.888;2023-08-31T01:18:38;10.20;;;2.60;;
5245;SDS011;54412;51.206;6.888;2023-08-31T01:21:06;14.43;;;3.30;;
5245;SDS011;54412;51.206;6.888;2023-08-31T01:24:03;4.40;;;2.90;;
5245;SDS011;54412;51.206;6.888;2023-08-31T01:26:31;8.07;;;3.77;;
5245;SDS011;54412;51.206;6.888;2023-08-31T01:28:57;7.17;;;3.23;;
5245;SDS011;54412;51.206;6.888;2023-08-31T01:31:24;6.63;;;2.77;;
5245;SDS011;54412;51.206;6.888;2023-08-31T01:33:50;5.53;;;2.60;;
5245;SDS011;54412;51.206;6.888;2023-08-31T01:36:28;8.17;;;3.20;;
5245;SDS011;54412;51.206;6.888;2023-08-31T01:39:01;8.30;;;3.43;;
5245;SDS011;54412;51.206;6.888;2023-08-31T01:41:35;8.93;;;2.80;;
5245;SDS011;54412;51.206;6.888;2023-08-31T01:44:05;4.57;;;2.63;;
5245;SDS011;54412;51.206;6.888;2023-08-31T01:46:39;5.40;;;2.60;;
5245;SDS011;54412;51.206;6.888;2023-08-31T01:49:06;4.60;;;2.77;;
5245;SDS011;54412;51.206;6.888;2023-08-31T01:51:31;2.93;;;2.40;;
5245;SDS011;54412;51.206;6.888;2023-08-31T01:53:57;3.97;;;2.43;;
5245;SDS011;54412;51.206;6.888;2023-08-31T01:56:24;4.67;;;2.80;;
5245;SDS011;54412;51.206;6.888;2023-08-31T01:58:49;3.10;;;2.43;;
5245;SDS011;54412;51.206;6.888;2023-08-31T02:01:15;4.87;;;2.63;;
5245;SDS011;54412;51.206;6.888;2023-08-31T02:03:41;6.70;;;2.43;;
5245;SDS011;54412;51.206;6.888;2023-08-31T02:06:06;3.30;;;2.30;;
5245;SDS011;54412;51.206;6.888;2023-08-31T02:08:32;10.50;;;2.83;;
5245;SDS011;54412;51.206;6.888;2023-08-31T02:10:58;9.23;;;2.67;;
5245;SDS011;54412;51.206;6.888;2023-08-31T02:13:23;5.37;;;2.30;;
5245;SDS011;54412;51.206;6.888;2023-08-31T02:15:52;2.83;;;2.27;;
5245;SDS011;54412;51.206;6.888;2023-08-31T02:18:19;2.60;;;2.40;;
5245;SDS011;54412;51.206;6.888;2023-08-31T02:20:44;6.20;;;3.10;;
5245;SDS011;54412;51.206;6.888;2023-08-31T02:23:11;6.00;;;2.80;;
5245;SDS011;54412;51.206;6.888;2023-08-31T02:25:37;3.87;;;2.50;;
5245;SDS011;54412;51.206;6.888;2023-08-31T02:28:03;2.97;;;2.33;;
5245;SDS011;54412;51.206;6.888;2023-08-31T02:30:29;2.17;;;2.07;;
5245;SDS011;54412;51.206;6.888;2023-08-31T02:32:55;8.07;;;2.50;;
5245;SDS011;54412;51.206;6.888;2023-08-31T02:35:20;8.73;;;4.27;;
5245;SDS011;54412;51.206;6.888;2023-08-31T02:37:46;5.43;;;2.37;;
5245;SDS011;54412;51.206;6.888;2023-08-31T02:40:11;5.67;;;3.33;;
5245;SDS011;54412;51.206;6.888;2023-08-31T02:42:37;4.07;;;2.43;;
5245;SDS011;54412;51.206;6.888;2023-08-31T02:45:03;5.57;;;2.20;;
5245;SDS011;54412;51.206;6.888;2023-08-31T02:47:29;4.63;;;2.50;;
5245;SDS011;54412;51.206;6.888;2023-08-31T02:49:55;6.80;;;3.30;;
5245;SDS011;54412;51.206;6.888;2023-08-31T02:52:21;2.07;;;1.93;;
5245;SDS011;54412;51.206;6.888;2023-08-31T02:54:47;2.53;;;2.30;;
5245;SDS011;54412;51.206;6.888;2023-08-31T02:57:12;3.73;;;1.90;;
5245;SDS011;54412;51.206;6.888;2023-08-31T02:59:40;3.70;;;2.23;;
5245;SDS011;54412;51.206;6.888;2023-08-31T03:02:07;7.33;;;2.40;;
5245;SDS011;54412;51.206;6.888;2023-08-31T03:04:33;2.00;;;1.90;;
5245;SDS011;54412;51.206;6.888;2023-08-31T03:06:59;2.23;;;2.03;;
5245;SDS011;54412;51.206;6.888;2023-08-31T03:09:24;7.27;;;3.00;;
5245;SDS011;54412;51.206;6.888;2023-08-31T03:11:50;2.53;;;2.10;;
5245;SDS011;54412;51.206;6.888;2023-08-31T03:14:16;4.57;;;2.27;;
5245;SDS011;54412;51.206;6.888;2023-08-31T03:16:41;4.80;;;2.40;;
5245;SDS011;54412;51.206;6.888;2023-08-31T03:19:07;2.50;;;2.03;;
5245;SDS011;54412;51.206;6.888;2023-08-31T03:21:32;4.10;;;2.40;;
5245;SDS011;54412;51.206;6.888;2023-08-31T03:23:59;6.57;;;2.27;;
5245;SDS011;54412;51.206;6.888;2023-08-31T03:26:25;3.33;;;2.20;;
5245;SDS011;54412;51.206;6.888;2023-08-31T03:28:50;3.27;;;1.80;;
5245;SDS011;54412;51.206;6.888;2023-08-31T03:31:16;5.80;;;2.47;;
5245;SDS011;54412;51.206;6.888;2023-08-31T03:33:42;2.33;;;1.90;;
5245;SDS011;54412;51.206;6.888;2023-08-31T03:36:07;3.50;;;2.07;;
5245;SDS011;54412;51.206;6.888;2023-08-31T03:38:33;3.00;;;2.23;;
5245;SDS011;54412;51.206;6.888;2023-08-31T03:41:02;2.40;;;2.20;;
5245;SDS011;54412;51.206;6.888;2023-08-31T03:43:28;7.87;;;2.37;;
5245;SDS011;54412;51.206;6.888;2023-08-31T03:45:54;4.13;;;2.10;;
5245;SDS011;54412;51.206;6.888;2023-08-31T03:48:22;2.97;;;2.63;;
5245;SDS011;54412;51.206;6.888;2023-08-31T03:50:52;7.27;;;2.63;;
5245;SDS011;54412;51.206;6.888;2023-08-31T03:53:19;3.13;;;2.20;;
5245;SDS011;54412;51.206;6.888;2023-08-31T03:55:45;3.40;;;2.40;;
5245;SDS011;54412;51.206;6.888;2023-08-31T03:58:11;9.13;;;2.60;;
5245;SDS011;54412;51.206;6.888;2023-08-31T04:00:37;4.90;;;2.87;;
5245;SDS011;54412;51.206;6.888;2023-08-31T04:03:04;4.83;;;2.83;;
5245;SDS011;54412;51.206;6.888;2023-08-31T04:05:33;8.30;;;3.30;;
5245;SDS011;54412;51.206;6.888;2023-08-31T04:08:00;3.77;;;3.00;;
5245;SDS011;54412;51.206;6.888;2023-08-31T04:10:26;3.50;;;3.20;;
5245;SDS011;54412;51.206;6.888;2023-08-31T04:12:52;2.80;;;2.57;;
5245;SDS011;54412;51.206;6.888;2023-08-31T04:15:18;5.37;;;3.27;;
5245;SDS011;54412;51.206;6.888;2023-08-31T04:17:44;4.10;;;3.70;;
5245;SDS011;54412;51.206;6.888;2023-08-31T04:20:10;8.93;;;3.43;;
5245;SDS011;54412;51.206;6.888;2023-08-31T04:22:36;12.87;;;3.77;;
5245;SDS011;54412;51.206;6.888;2023-08-31T04:25:02;3.70;;;2.80;;
5245;SDS011;54412;51.206;6.888;2023-08-31T04:27:28;7.47;;;3.40;;
5245;SDS011;54412;51.206;6.888;2023-08-31T04:30:00;6.60;;;3.57;;
5245;SDS011;54412;51.206;6.888;2023-08-31T04:32:27;5.70;;;3.30;;
5245;SDS011;54412;51.206;6.888;2023-08-31T04:34:53;4.70;;;3.63;;
5245;SDS011;54412;51.206;6.888;2023-08-31T04:37:19;4.67;;;3.73;;
5245;SDS011;54412;51.206;6.888;2023-08-31T04:39:46;5.83;;;3.37;;
5245;SDS011;54412;51.206;6.888;2023-08-31T04:42:12;9.60;;;3.77;;
5245;SDS011;54412;51.206;6.888;2023-08-31T04:44:37;7.30;;;3.00;;
5245;SDS011;54412;51.206;6.888;2023-08-31T04:47:03;5.53;;;4.03;;
5245;SDS011;54412;51.206;6.888;2023-08-31T04:49:29;5.47;;;3.60;;
5245;SDS011;54412;51.206;6.888;2023-08-31T04:51:56;6.63;;;3.53;;
5245;SDS011;54412;51.206;6.888;2023-08-31T04:54:21;6.53;;;3.90;;
5245;SDS011;54412;51.206;6.888;2023-08-31T04:56:47;5.23;;;3.90;;
5245;SDS011;54412;51.206;6.888;2023-08-31T04:59:13;8.77;;;4.60;;
5245;SDS011;54412;51.206;6.888;2023-08-31T05:01:38;5.13;;;3.60;;
5245;SDS011;54412;51.206;6.888;2023-08-31T05:04:04;4.03;;;3.67;;
5245;SDS011;54412;51.206;6.888;2023-08-31T05:06:30;4.20;;;3.77;;
5245;SDS011;54412;51.206;6.888;2023-08-31T05:08:56;8.17;;;3.60;;
5245;SDS011;54412;51.206;6.888;2023-08-31T05:11:22;4.90;;;4.40;;
5245;SDS011;54412;51.206;6.888;2023-08-31T05:13:48;5.03;;;3.83;;
5245;SDS011;54412;51.206;6.888;2023-08-31T05:16:14;3.53;;;3.13;;
5245;SDS011;54412;51.206;6.888;2023-08-31T05:18:40;3.30;;;3.00;;
5245;SDS011;54412;51.206;6.888;2023-08-31T05:21:06;4.07;;;3.20;;
5245;SDS011;54412;51.206;6.888;2023-08-31T05:23:32;6.30;;;4.27;;
5245;SDS011;54412;51.206;6.888;2023-08-31T05:25:57;6.30;;;4.00;;
5245;SDS011;54412;51.206;6.888;2023-08-31T05:28:23;4.20;;;3.53;;
5245;SDS011;54412;51.206;6.888;2023-08-31T05:30:50;6.77;;;3.90;;
5245;SDS011;54412;51.206;6.888;2023-08-31T05:33:18;4.60;;;3.67;;
5245;SDS011;54412;51.206;6.888;2023-08-31T05:35:44;7.83;;;4.37;;
5245;SDS011;54412;51.206;6.888;2023-08-31T05:38:10;8.90;;;3.97;;
5245;SDS011;54412;51.206;6.888;2023-08-31T05:40:37;6.87;;;3.70;;
5245;SDS011;54412;51.206;6.888;2023-08-31T05:43:03;5.80;;;3.70;;
5245;SDS011;54412;51.206;6.888;2023-08-31T05:45:32;7.20;;;4.90;;
5245;SDS011;54412;51.206;6.888;2023-08-31T05:47:59;5.53;;;4.47;;
5245;SDS011;54412;51.206;6.888;2023-08-31T05:50:25;4.00;;;3.60;;
5245;SDS011;54412;51.206;6.888;2023-08-31T05:52:55;8.93;;;4.40;;
5245;SDS011;54412;51.206;6.888;2023-08-31T05:55:20;7.23;;;4.70;;
5245;SDS011;54412;51.206;6.888;2023-08-31T05:57:46;8.03;;;3.90;;
5245;SDS011;54412;51.206;6.888;2023-08-31T06:00:12;7.90;;;4.17;;
5245;SDS011;54412;51.206;6.888;2023-08-31T06:02:38;6.40;;;3.70;;
5245;SDS011;54412;51.206;6.888;2023-08-31T06:05:04;5.97;;;4.27;;
5245;SDS011;54412;51.206;6.888;2023-08-31T06:07:30;5.47;;;4.40;;
5245;SDS011;54412;51.206;6.888;2023-08-31T06:09:57;7.83;;;4.33;;
5245;SDS011;54412;51.206;6.888;2023-08-31T06:12:22;15.73;;;4.30;;
5245;SDS011;54412;51.206;6.888;2023-08-31T06:14:48;7.10;;;4.47;;
5245;SDS011;54412;51.206;6.888;2023-08-31T06:17:14;6.97;;;3.93;;
5245;SDS011;54412;51.206;6.888;2023-08-31T06:19:40;4.83;;;3.90;;
5245;SDS011;54412;51.206;6.888;2023-08-31T06:22:06;6.50;;;4.37;;
5245;SDS011;54412;51.206;6.888;2023-08-31T06:24:32;9.33;;;4.40;;
5245;SDS011;54412;51.206;6.888;2023-08-31T06:26:59;4.97;;;3.77;;
5245;SDS011;54412;51.206;6.888;2023-08-31T06:29:25;9.03;;;4.37;;
5245;SDS011;54412;51.206;6.888;2023-08-31T06:31:51;10.47;;;4.83;;
5245;SDS011;54412;51.206;6.888;2023-08-31T06:34:17;8.17;;;4.77;;
5245;SDS011;54412;51.206;6.888;2023-08-31T06:36:43;7.50;;;3.83;;
5245;SDS011;54412;51.206;6.888;2023-08-31T06:39:08;5.90;;;4.60;;
5245;SDS011;54412;51.206;6.888;2023-08-31T06:41:34;7.80;;;3.90;;
5245;SDS011;54412;51.206;6.888;2023-08-31T06:44:00;8.57;;;4.03;;
5245;SDS011;54412;51.206;6.888;2023-08-31T06:46:27;7.13;;;3.43;;
5245;SDS011;54412;51.206;6.888;2023-08-31T06:48:53;6.63;;;3.23;;
5245;SDS011;54412;51.206;6.888;2023-08-31T06:51:19;9.97;;;3.60;;
5245;SDS011;54412;51.206;6.888;2023-08-31T06:53:46;8.90;;;4.43;;
5245;SDS011;54412;51.206;6.888;2023-08-31T06:56:11;6.07;;;4.20;;
5245;SDS011;54412;51.206;6.888;2023-08-31T06:58:37;8.30;;;3.50;;
5245;SDS011;54412;51.206;6.888;2023-08-31T07:01:05;7.33;;;3.30;;
5245;SDS011;54412;51.206;6.888;2023-08-31T07:03:31;6.50;;;3.50;;
5245;SDS011;54412;51.206;6.888;2023-08-31T07:05:57;4.97;;;3.07;;
5245;SDS011;54412;51.206;6.888;2023-08-31T07:08:22;3.73;;;3.40;;
5245;SDS011;54412;51.206;6.888;2023-08-31T07:10:51;10.70;;;3.43;;
5245;SDS011;54412;51.206;6.888;2023-08-31T07:13:17;4.63;;;2.97;;
5245;SDS011;54412;51.206;6.888;2023-08-31T07:15:42;6.47;;;3.00;;
5245;SDS011;54412;51.206;6.888;2023-08-31T07:18:08;10.47;;;2.70;;
5245;SDS011;54412;51.206;6.888;2023-08-31T07:20:34;6.50;;;2.80;;
5245;SDS011;54412;51.206;6.888;2023-08-31T07:23:00;6.30;;;2.73;;
5245;SDS011;54412;51.206;6.888;2023-08-31T07:25:25;2.97;;;2.40;;
5245;SDS011;54412;51.206;6.888;2023-08-31T07:27:52;10.87;;;3.50;;
5245;SDS011;54412;51.206;6.888;2023-08-31T07:30:18;4.40;;;2.50;;
5245;SDS011;54412;51.206;6.888;2023-08-31T07:32:43;5.23;;;3.07;;
5245;SDS011;54412;51.206;6.888;2023-08-31T07:35:09;5.13;;;2.23;;
5245;SDS011;54412;51.206;6.888;2023-08-31T07:37:35;7.80;;;2.80;;
5245;SDS011;54412;51.206;6.888;2023-08-31T07:40:02;5.20;;;2.57;;
5245;SDS011;54412;51.206;6.888;2023-08-31T07:42:33;4.87;;;2.40;;
5245;SDS011;54412;51.206;6.888;2023-08-31T07:45:00;3.30;;;2.60;;
5245;SDS011;54412;51.206;6.888;2023-08-31T07:47:25;4.87;;;2.70;;
5245;SDS011;54412;51.206;6.888;2023-08-31T07:49:51;4.73;;;2.40;;
5245;SDS011;54412;51.206;6.888;2023-08-31T07:52:17;4.83;;;2.40;;
5245;SDS011;54412;51.206;6.888;2023-08-31T07:54:42;5.50;;;2.50;;
5245;SDS011;54412;51.206;6.888;2023-08-31T07:57:08;2.33;;;2.10;;
5245;SDS011;54412;51.206;6.888;2023-08-31T07:59:34;4.20;;;2.37;;
5245;SDS011;54412;51.206;6.888;2023-08-31T08:01:59;6.40;;;2.60;;
5245;SDS011;54412;51.206;6.888;2023-08-31T08:04:25;3.33;;;2.63;;
5245;SDS011;54412;51.206;6.888;2023-08-31T08:06:52;3.30;;;2.20;;
5245;SDS011;54412;51.206;6.888;2023-08-31T08:09:17;5.70;;;2.23;;
5245;SDS011;54412;51.206;6.888;2023-08-31T08:11:43;5.10;;;2.60;;
5245;SDS011;54412;51.206;6.888;2023-08-31T08:14:09;4.93;;;2.50;;
5245;SDS011;54412;51.206;6.888;2023-08-31T08:16:35;5.17;;;2.53;;
5245;SDS011;54412;51.206;6.888;2023-08-31T08:19:01;4.73;;;2.60;;
5245;SDS011;54412;51.206;6.888;2023-08-31T08:21:27;1.90;;;1.80;;
5245;SDS011;54412;51.206;6.888;2023-08-31T08:23:53;6.00;;;2.07;;
5245;SDS011;54412;51.206;6.888;2023-08-31T08:26:18;6.27;;;2.60;;
5245;SDS011;54412;51.206;6.888;2023-08-31T08:28:44;5.93;;;2.27;;
5245;SDS011;54412;51.206;6.888;2023-08-31T08:31:11;6.50;;;2.80;;
5245;SDS011;54412;51.206;6.888;2023-08-31T08:33:36;8.70;;;2.30;;
5245;SDS011;54412;51.206;6.888;2023-08-31T08:36:02;1.77;;;1.63;;
5245;SDS011;54412;51.206;6.888;2023-08-31T08:38:28;2.10;;;1.80;;
5245;SDS011;54412;51.206;6.888;2023-08-31T08:40:54;1.93;;;1.80;;
5245;SDS011;54412;51.206;6.888;2023-08-31T08:43:24;5.20;;;2.43;;
5245;SDS011;54412;51.206;6.888;2023-08-31T08:45:53;3.03;;;2.10;;
5245;SDS011;54412;51.206;6.888;2023-08-31T08:48:21;1.77;;;1.57;;
5245;SDS011;54412;51.206;6.888;2023-08-31T08:50:48;2.60;;;1.80;;
5245;SDS011;54412;51.206;6.888;2023-08-31T08:53:14;7.00;;;2.23;;
5245;SDS011;54412;51.206;6.888;2023-08-31T08:55:43;8.90;;;2.60;;
5245;SDS011;54412;51.206;6.888;2023-08-31T08:58:09;8.90;;;2.53;;
5245;SDS011;54412;51.206;6.888;2023-08-31T09:00:35;5.20;;;2.60;;
5245;SDS011;54412;51.206;6.888;2023-08-31T09:03:01;2.67;;;2.10;;
5245;SDS011;54412;51.206;6.888;2023-08-31T09:05:31;1.80;;;1.63;;
5245;SDS011;54412;51.206;6.888;2023-08-31T09:08:07;4.57;;;2.30;;
5245;SDS011;54412;51.206;6.888;2023-08-31T09:10:37;2.60;;;1.90;;
5245;SDS011;54412;51.206;6.888;2023-08-31T09:13:06;4.93;;;2.37;;
5245;SDS011;54412;51.206;6.888;2023-08-31T09:15:40;2.80;;;1.80;;
5245;SDS011;54412;51.206;6.888;2023-08-31T09:18:53;3.67;;;1.87;;
5245;SDS011;54412;51.206;6.888;2023-08-31T09:21:00;4.80;;;2.10;;
5245;SDS011;54412;51.206;6.888;2023-08-31T09:23:26;1.90;;;1.80;;
5245;SDS011;54412;51.206;6.888;2023-08-31T09:25:53;4.47;;;2.40;;
5245;SDS011;54412;51.206;6.888;2023-08-31T09:28:22;1.73;;;1.50;;
5245;SDS011;54412;51.206;6.888;2023-08-31T09:30:51;3.80;;;1.90;;
5245;SDS011;54412;51.206;6.888;2023-08-31T09:33:19;4.57;;;2.00;;
5245;SDS011;54412;51.206;6.888;2023-08-31T09:35:49;4.20;;;1.80;;
5245;SDS011;54412;51.206;6.888;2023-08-31T09:38:17;4.70;;;2.10;;
5245;SDS011;54412;51.206;6.888;2023-08-31T09:40:44;4.07;;;1.80;;
5245;SDS011;54412;51.206;6.888;2023-08-31T09:43:09;4.50;;;2.60;;
5245;SDS011;54412;51.206;6.888;2023-08-31T09:45:35;5.07;;;2.40;;
5245;SDS011;54412;51.206;6.888;2023-08-31T09:48:03;5.20;;;2.07;;
5245;SDS011;54412;51.206;6.888;2023-08-31T09:50:30;5.53;;;2.17;;
5245;SDS011;54412;51.206;6.888;2023-08-31T09:53:03;6.40;;;1.73;;
5245;SDS011;54412;51.206;6.888;2023-08-31T09:55:33;2.80;;;1.93;;
5245;SDS011;54412;51.206;6.888;2023-08-31T09:58:02;3.53;;;2.20;;
5245;SDS011;54412;51.206;6.888;2023-08-31T10:00:31;6.13;;;2.13;;
5245;SDS011;54412;51.206;6.888;2023-08-31T10:03:02;5.03;;;1.97;;
5245;SDS011;54412;51.206;6.888;2023-08-31T10:05:30;3.10;;;1.70;;
5245;SDS011;54412;51.206;6.888;2023-08-31T10:07:57;7.20;;;2.37;;
5245;SDS011;54412;51.206;6.888;2023-08-31T10:10:25;5.87;;;2.00;;
5245;SDS011;54412;51.206;6.888;2023-08-31T10:12:53;4.37;;;1.80;;
5245;SDS011;54412;51.206;6.888;2023-08-31T10:15:19;4.50;;;1.70;;
5245;SDS011;54412;51.206;6.888;2023-08-31T10:17:45;1.63;;;1.53;;
5245;SDS011;54412;51.206;6.888;2023-08-31T10:20:12;7.13;;;2.03;;
5245;SDS011;54412;51.206;6.888;2023-08-31T10:22:42;4.27;;;1.90;;
5245;SDS011;54412;51.206;6.888;2023-08-31T10:25:08;8.83;;;1.83;;
5245;SDS011;54412;51.206;6.888;2023-08-31T10:27:40;4.53;;;1.87;;
5245;SDS011;54412;51.206;6.888;2023-08-31T10:35:47;6.37;;;2.33;;
5245;SDS011;54412;51.206;6.888;2023-08-31T10:38:23;5.30;;;3.37;;
5245;SDS011;54412;51.206;6.888;2023-08-31T10:46:18;3.23;;;1.90;;
5245;SDS011;54412;51.206;6.888;2023-08-31T10:51:46;2.70;;;1.73;;
5245;SDS011;54412;51.206;6.888;2023-08-31T10:54:26;4.03;;;1.93;;
5245;SDS011;54412;51.206;6.888;2023-08-31T10:59:51;5.17;;;3.10;;
5245;SDS011;54412;51.206;6.888;2023-08-31T11:02:28;6.10;;;1.87;;
5245;SDS011;54412;51.206;6.888;2023-08-31T11:05:12;7.20;;;2.27;;
5245;SDS011;54412;51.206;6.888;2023-08-31T11:07:40;3.03;;;1.50;;
5245;SDS011;54412;51.206;6.888;2023-08-31T11:10:13;5.70;;;1.70;;
5245;SDS011;54412;51.206;6.888;2023-08-31T11:12:40;4.57;;;2.47;;
5245;SDS011;54412;51.206;6.888;2023-08-31T11:15:12;7.13;;;1.77;;
5245;SDS011;54412;51.206;6.888;2023-08-31T11:17:42;4.47;;;2.10;;
5245;SDS011;54412;51.206;6.888;2023-08-31T11:20:13;6.90;;;1.93;;
5245;SDS011;54412;51.206;6.888;2023-08-31T11:22:42;2.77;;;1.97;;
5245;SDS011;54412;51.206;6.888;2023-08-31T11:25:11;2.40;;;1.90;;
5245;SDS011;54412;51.206;6.888;2023-08-31T11:27:38;4.23;;;1.80;;
5245;SDS011;54412;51.206;6.888;2023-08-31T11:30:14;3.10;;;1.90;;
5245;SDS011;54412;51.206;6.888;2023-08-31T11:32:44;4.50;;;1.80;;
5245;SDS011;54412;51.206;6.888;2023-08-31T11:35:12;12.23;;;3.73;;
5245;SDS011;54412;51.206;6.888;2023-08-31T11:37:41;3.87;;;2.20;;
5245;SDS011;54412;51.206;6.888;2023-08-31T11:40:08;5.30;;;2.17;;
5245;SDS011;54412;51.206;6.888;2023-08-31T11:42:34;5.13;;;1.90;;
5245;SDS011;54412;51.206;6.888;2023-08-31T11:45:00;1.63;;;1.40;;
5245;SDS011;54412;51.206;6.888;2023-08-31T11:47:30;3.40;;;1.73;;
5245;SDS011;54412;51.206;6.888;2023-08-31T11:49:56;4.43;;;2.37;;
5245;SDS011;54412;51.206;6.888;2023-08-31T11:52:24;5.57;;;2.33;;
5245;SDS011;54412;51.206;6.888;2023-08-31T11:54:51;3.90;;;1.70;;
5245;SDS011;54412;51.206;6.888;2023-08-31T11:57:18;4.67;;;2.20;;
5245;SDS011;54412;51.206;6.888;2023-08-31T11:59:50;4.73;;;1.90;;
5245;SDS011;54412;51.206;6.888;2023-08-31T12:02:18;4.33;;;1.63;;
5245;SDS011;54412;51.206;6.888;2023-08-31T12:04:45;4.20;;;2.10;;
5245;SDS011;54412;51.206;6.888;2023-08-31T12:07:11;8.07;;;2.17;;
5245;SDS011;54412;51.206;6.888;2023-08-31T12:09:44;14.07;;;4.03;;
5245;SDS011;54412;51.206;6.888;2023-08-31T12:12:11;5.33;;;2.60;;
5245;SDS011;54412;51.206;6.888;2023-08-31T12:14:40;10.40;;;2.60;;
5245;SDS011;54412;51.206;6.888;2023-08-31T12:17:07;4.10;;;2.27;;
5245;SDS011;54412;51.206;6.888;2023-08-31T12:19:36;3.47;;;2.00;;
5245;SDS011;54412;51.206;6.888;2023-08-31T12:22:04;2.20;;;1.77;;
5245;SDS011;54412;51.206;6.888;2023-08-31T12:24:38;4.70;;;1.80;;
5245;SDS011;54412;51.206;6.888;2023-08-31T12:27:07;7.43;;;2.47;;
5245;SDS011;54412;51.206;6.888;2023-08-31T12:29:34;13.23;;;2.40;;
5245;SDS011;54412;51.206;6.888;2023-08-31T12:32:00;2.97;;;1.37;;
5245;SDS011;54412;51.206;6.888;2023-08-31T12:34:27;3.00;;;1.70;;
5245;SDS011;54412;51.206;6.888;2023-08-31T12:36:54;4.77;;;1.87;;
5245;SDS011;54412;51.206;6.888;2023-08-31T12:39:20;6.10;;;1.60;;
5245;SDS011;54412;51.206;6.888;2023-08-31T12:41:46;4.03;;;1.90;;
5245;SDS011;54412;51.206;6.888;2023-08-31T12:44:11;4.73;;;1.70;;
5245;SDS011;54412;51.206;6.888;2023-08-31T12:46:37;6.10;;;2.03;;
5245;SDS011;54412;51.206;6.888;2023-08-31T12:49:04;3.93;;;2.20;;
5245;SDS011;54412;51.206;6.888;2023-08-31T12:51:30;2.30;;;1.50;;
5245;SDS011;54412;51.206;6.888;2023-08-31T12:53:57;3.67;;;1.80;;
5245;SDS011;54412;51.206;6.888;2023-08-31T12:56:23;2.53;;;1.40;;
5245;SDS011;54412;51.206;6.888;2023-08-31T12:58:52;8.27;;;2.17;;
5245;SDS011;54412;51.206;6.888;2023-08-31T13:01:19;8.60;;;1.60;;
5245;SDS011;54412;51.206;6.888;2023-08-31T13:03:47;5.13;;;2.07;;
5245;SDS011;54412;51.206;6.888;2023-08-31T13:06:15;3.77;;;1.87;;
5245;SDS011;54412;51.206;6.888;2023-08-31T13:08:41;5.73;;;1.73;;
5245;SDS011;54412;51.206;6.888;2023-08-31T13:11:09;5.93;;;1.80;;
5245;SDS011;54412;51.206;6.888;2023-08-31T13:13:37;2.27;;;1.40;;
5245;SDS011;54412;51.206;6.888;2023-08-31T13:16:03;3.80;;;1.73;;
5245;SDS011;54412;51.206;6.888;2023-08-31T13:18:29;2.07;;;1.13;;
5245;SDS011;54412;51.206;6.888;2023-08-31T13:20:55;3.03;;;1.60;;
5245;SDS011;54412;51.206;6.888;2023-08-31T13:23:21;3.17;;;1.63;;
5245;SDS011;54412;51.206;6.888;2023-08-31T13:25:48;4.13;;;2.10;;
5245;SDS011;54412;51.206;6.888;2023-08-31T13:28:15;4.97;;;1.73;;
5245;SDS011;54412;51.206;6.888;2023-08-31T13:30:41;2.50;;;1.47;;
5245;SDS011;54412;51.206;6.888;2023-08-31T13:33:07;6.40;;;1.70;;
5245;SDS011;54412;51.206;6.888;2023-08-31T13:35:33;6.00;;;2.23;;
5245;SDS011;54412;51.206;6.888;2023-08-31T13:38:00;5.23;;;1.80;;
5245;SDS011;54412;51.206;6.888;2023-08-31T13:40:27;5.43;;;2.23;;
5245;SDS011;54412;51.206;6.888;2023-08-31T13:42:54;6.97;;;1.90;;
5245;SDS011;54412;51.206;6.888;2023-08-31T13:45:27;6.73;;;2.10;;
5245;SDS011;54412;51.206;6.888;2023-08-31T13:47:55;3.20;;;1.40;;
5245;SDS011;54412;51.206;6.888;2023-08-31T13:50:24;4.23;;;1.70;;
5245;SDS011;54412;51.206;6.888;2023-08-31T13:52:51;4.33;;;1.47;;
5245;SDS011;54412;51.206;6.888;2023-08-31T13:55:17;3.83;;;1.77;;
5245;SDS011;54412;51.206;6.888;2023-08-31T13:57:43;5.30;;;2.30;;
5245;SDS011;54412;51.206;6.888;2023-08-31T14:00:09;3.60;;;2.10;;
5245;SDS011;54412;51.206;6.888;2023-08-31T14:02:36;3.23;;;1.57;;
5245;SDS011;54412;51.206;6.888;2023-08-31T14:05:03;7.30;;;2.73;;
5245;SDS011;54412;51.206;6.888;2023-08-31T14:07:31;4.00;;;1.50;;
5245;SDS011;54412;51.206;6.888;2023-08-31T14:09:58;3.70;;;1.50;;
5245;SDS011;54412;51.206;6.888;2023-08-31T14:12:24;12.40;;;2.03;;
5245;SDS011;54412;51.206;6.888;2023-08-31T14:14:50;5.20;;;1.77;;
5245;SDS011;54412;51.206;6.888;2023-08-31T14:17:17;3.43;;;1.93;;
5245;SDS011;54412;51.206;6.888;2023-08-31T14:19:43;6.10;;;1.70;;
5245;SDS011;54412;51.206;6.888;2023-08-31T14:22:09;1.70;;;1.60;;
5245;SDS011;54412;51.206;6.888;2023-08-31T14:24:36;5.13;;;1.60;;
5245;SDS011;54412;51.206;6.888;2023-08-31T14:27:02;6.70;;;2.20;;
5245;SDS011;54412;51.206;6.888;2023-08-31T14:29:29;4.47;;;1.87;;
5245;SDS011;54412;51.206;6.888;2023-08-31T14:31:55;3.17;;;1.70;;
5245;SDS011;54412;51.206;6.888;2023-08-31T14:34:21;6.47;;;1.70;;
5245;SDS011;54412;51.206;6.888;2023-08-31T14:36:47;1.80;;;1.67;;
5245;SDS011;54412;51.206;6.888;2023-08-31T14:39:13;13.73;;;2.63;;
5245;SDS011;54412;51.206;6.888;2023-08-31T14:41:43;5.93;;;1.90;;
5245;SDS011;54412;51.206;6.888;2023-08-31T14:44:08;8.97;;;2.17;;
5245;SDS011;54412;51.206;6.888;2023-08-31T14:46:34;5.73;;;2.50;;
5245;SDS011;54412;51.206;6.888;2023-08-31T14:48:59;4.70;;;2.10;;
5245;SDS011;54412;51.206;6.888;2023-08-31T14:51:25;8.33;;;2.43;;
5245;SDS011;54412;51.206;6.888;2023-08-31T14:53:51;3.47;;;1.90;;
5245;SDS011;54412;51.206;6.888;2023-08-31T14:56:16;5.03;;;2.23;;
5245;SDS011;54412;51.206;6.888;2023-08-31T14:58:42;5.10;;;2.70;;
5245;SDS011;54412;51.206;6.888;2023-08-31T15:01:08;2.20;;;1.97;;
5245;SDS011;54412;51.206;6.888;2023-08-31T15:03:33;5.77;;;2.00;;
5245;SDS011;54412;51.206;6.888;2023-08-31T15:05:59;8.23;;;1.97;;
5245;SDS011;54412;51.206;6.888;2023-08-31T15:08:34;6.00;;;2.73;;
5245;SDS011;54412;51.206;6.888;2023-08-31T15:11:02;3.00;;;1.70;;
5245;SDS011;54412;51.206;6.888;2023-08-31T15:13:28;5.43;;;2.10;;
5245;SDS011;54412;51.206;6.888;2023-08-31T15:15:54;3.03;;;1.90;;
5245;SDS011;54412;51.206;6.888;2023-08-31T15:18:19;7.50;;;2.10;;
5245;SDS011;54412;51.206;6.888;2023-08-31T15:20:45;10.40;;;1.83;;
5245;SDS011;54412;51.206;6.888;2023-08-31T15:23:12;7.77;;;2.23;;
5245;SDS011;54412;51.206;6.888;2023-08-31T15:25:38;4.13;;;2.17;;